Time Latitude Longitude Accuracy (66% radius in meters) Altitude (meters) Speed (km/hour) Bearing (degrees) Battery (%) GPS flag
11:06:56 56.387522 43.737150 5 73.7 0 173.33000183105 61 1 delete
11:06:45 56.387522 43.737150 5 73.7 0 173.33000183105 61 1 delete
11:06:34 56.387522 43.737150 5 73.7 0 173.33000183105 61 1 delete
11:06:23 56.387522 43.737150 5 73.7 0.0625 173.33000183105 61 1 delete
11:06:11 56.387522 43.737150 5 73.7 0 173.33000183105 61 1 delete
11:06:00 56.387522 43.737150 5 73.7 0 173.33000183105 61 1 delete
11:05:48 56.387522 43.737150 5 73.7 0.0625 173.33000183105 61 1 delete
11:05:38 56.387522 43.737150 5 73.7 0.0625 173.33000183105 61 1 delete
11:05:26 56.387522 43.737150 5 73.7 0 173.33000183105 61 1 delete
11:05:15 56.387522 43.737150 5 73.7 0 173.33000183105 61 1 delete
11:05:05 56.387522 43.737150 5 73.7 0 173.33000183105 61 1 delete
11:04:52 56.387522 43.737150 5 73.7 0 173.33000183105 61 1 delete
11:04:41 56.387522 43.737150 5 73.7 0.0625 173.36999511719 61 1 delete
11:04:36 56.387533 43.737144 5 73.6 0.4375 167.94999694824 61 1 delete
11:04:30 56.387571 43.737104 5 75.4 0.125 166.85000610352 61 1 delete
11:04:18 56.387571 43.737104 5 75.4 0 166.85000610352 61 1 delete
11:04:07 56.387571 43.737104 5 75.4 0.0625 157.11000061035 61 1 delete
11:03:55 56.387571 43.737104 5 75.4 0.0625 157.11000061035 61 1 delete
11:03:44 56.387571 43.737104 5 75.4 0.125 157.11000061035 61 1 delete
11:03:33 56.387578 43.737086 5 80 0 157.11000061035 61 1 delete
11:03:22 56.387578 43.737086 5 80 0.0625 157.11000061035 61 1 delete
11:03:11 56.387578 43.737086 5 80 0 157.11000061035 61 1 delete
11:03:00 56.387578 43.737086 5 80 0 157.11000061035 61 1 delete
11:02:48 56.387578 43.737086 5 80 0 157.11000061035 61 1 delete
11:02:37 56.387578 43.737086 5 80 0.125 157.11000061035 61 1 delete
11:02:25 56.387579 43.737089 5 80.1 0.125 135.03999328613 61 1 delete
11:02:14 56.387618 43.737093 5 83.1 0.0625 135.03999328613 61 1 delete
11:02:02 56.387618 43.737093 5 83.1 0 135.03999328613 61 1 delete
11:01:51 56.387618 43.737093 5 83.1 0 135.03999328613 61 1 delete
11:01:37 56.387618 43.737093 5 83.1 0.0625 135.03999328613 61 1 delete
11:01:26 56.387618 43.737093 5 83.1 0 135.03999328613 61 1 delete
11:01:14 56.387601 43.737085 5 88.5 0 135.03999328613 61 1 delete
11:01:03 56.387601 43.737085 5 88.5 0 135.03999328613 61 1 delete
11:00:51 56.387601 43.737085 5 88.5 0 135.03999328613 61 1 delete
11:00:40 56.387601 43.737085 5 88.5 0 135.03999328613 61 1 delete
11:00:28 56.387601 43.737085 5 88.5 0 135.03999328613 61 1 delete
11:00:17 56.387601 43.737085 5 88.5 0 135.03999328613 61 1 delete
11:00:05 56.387602 43.737084 5 88.5 0.125 135.0299987793 61 1 delete
10:59:54 56.387629 43.737023 5 86.5 0 141.46000671387 61 1 delete
10:59:43 56.387629 43.737023 5 86.5 0 141.46000671387 61 1 delete
10:59:32 56.387629 43.737023 5 86.5 0 141.46000671387 61 1 delete
10:59:21 56.387629 43.737023 5 86.5 0 141.46000671387 61 1 delete
10:59:09 56.387629 43.737023 5 86.5 0 141.46000671387 61 1 delete
10:58:58 56.387629 43.737023 5 86.5 0 141.46000671387 61 1 delete
10:58:47 56.387629 43.737023 5 86.5 0 141.46000671387 61 1 delete
10:58:35 56.387629 43.737023 5 86.5 0 141.46000671387 61 1 delete
10:58:24 56.387629 43.737023 5 86.5 0 141.46000671387 61 1 delete
10:58:12 56.387629 43.737023 5 86.5 0 141.46000671387 61 1 delete
10:58:01 56.387629 43.737023 5 86.5 0 141.46000671387 61 1 delete
10:57:49 56.387629 43.737023 5 86.5 0 141.46000671387 61 1 delete